createdAt,value
2017-04-04T00:00:53.595Z,11.05
2017-04-04T00:01:53.499Z,9.25
2017-04-04T00:02:53.316Z,10.08
2017-04-04T00:03:52.508Z,8.17
2017-04-04T00:04:51.503Z,8.95
2017-04-04T00:05:50.564Z,8.67
2017-04-04T00:06:49.720Z,7.93
2017-04-04T00:07:48.858Z,9.98
2017-04-04T00:08:48.089Z,7.92
2017-04-04T00:09:47.251Z,10.65
2017-04-04T00:10:47.173Z,9.33
2017-04-04T00:11:46.356Z,9.83
2017-04-04T00:12:45.507Z,11.05
2017-04-04T00:13:45.376Z,13.03
2017-04-04T00:14:44.587Z,9.68
2017-04-04T00:15:44.475Z,7.13
2017-04-04T00:16:43.562Z,7.25
2017-04-04T00:17:43.375Z,12.10
2017-04-04T00:18:42.501Z,10.27
2017-04-04T00:19:41.512Z,10.43
2017-04-04T00:20:41.340Z,7.88
2017-04-04T00:21:40.460Z,6.15
2017-04-04T00:22:39.567Z,13.05
2017-04-04T00:23:39.370Z,14.02
2017-04-04T00:24:39.200Z,11.98
2017-04-04T00:25:38.308Z,11.02
2017-04-04T00:26:37.444Z,11.55
2017-04-04T00:27:36.612Z,11.45
2017-04-04T00:28:35.016Z,8.77
2017-04-04T00:29:34.187Z,8.95
2017-04-04T00:30:33.340Z,10.47
2017-04-04T00:31:33.136Z,13.08
2017-04-04T00:32:32.428Z,10.72
2017-04-04T00:33:31.557Z,9.02
2017-04-04T00:34:30.724Z,10.83
2017-04-04T00:35:30.089Z,13.03
2017-04-04T00:36:29.232Z,10.12
2017-04-04T00:37:29.092Z,5.20
2017-04-04T00:38:28.244Z,9.52
2017-04-04T00:39:27.291Z,10.12
2017-04-04T00:40:27.139Z,9.37
2017-04-04T00:41:26.259Z,10.12
2017-04-04T00:42:26.144Z,13.33
2017-04-04T00:43:25.611Z,15.57
2017-04-04T00:44:24.699Z,12.75
2017-04-04T00:45:23.924Z,12.90
2017-04-04T00:46:23.136Z,7.98
2017-04-04T00:47:22.356Z,11.20
2017-04-04T00:48:21.389Z,10.90
2017-04-04T00:49:20.528Z,9.80
2017-04-04T00:50:20.407Z,11.97
2017-04-04T00:51:19.936Z,9.45
2017-04-04T00:52:19.798Z,10.97
2017-04-04T00:53:18.948Z,8.30
2017-04-04T00:54:18.187Z,9.85
2017-04-04T00:55:18.033Z,10.38
2017-04-04T00:56:17.128Z,9.60
2017-04-04T00:57:16.198Z,10.37
2017-04-04T00:58:15.900Z,12.73
2017-04-04T00:59:15.098Z,9.95
2017-04-04T01:00:15.026Z,13.52
2017-04-04T01:01:14.955Z,11.40
2017-04-04T01:02:14.136Z,11.62
2017-04-04T01:03:13.183Z,10.35
2017-04-04T01:04:12.284Z,15.18
2017-04-04T01:05:11.251Z,9.50
2017-04-04T01:06:10.272Z,9.97
2017-04-04T01:07:09.532Z,9.83
2017-04-04T01:08:08.755Z,10.55
2017-04-04T01:09:08.656Z,10.67
2017-04-04T01:10:08.540Z,11.30
2017-04-04T01:11:07.679Z,10.15
2017-04-04T01:12:06.830Z,12.05
2017-04-04T01:13:06.747Z,12.45
2017-04-04T01:14:05.815Z,9.38
2017-04-04T01:15:04.943Z,11.35
2017-04-04T01:16:04.087Z,7.28
2017-04-04T01:17:03.339Z,11.92
2017-04-04T01:18:03.227Z,10.42
2017-04-04T01:19:01.524Z,13.45
2017-04-04T01:20:00.627Z,12.67
2017-04-04T01:20:59.832Z,12.65
2017-04-04T01:21:58.956Z,15.35
2017-04-04T01:22:58.073Z,14.50
2017-04-04T01:23:57.255Z,9.65
2017-04-04T01:24:56.341Z,13.40
2017-04-04T01:25:55.499Z,13.15
2017-04-04T01:26:54.659Z,11.33
2017-04-04T01:27:53.803Z,14.77
2017-04-04T01:28:52.916Z,12.78
2017-04-04T01:29:52.043Z,15.85
2017-04-04T01:30:51.184Z,14.83
2017-04-04T01:31:50.395Z,12.15
2017-04-04T01:32:49.455Z,10.87
2017-04-04T01:33:48.545Z,12.73
2017-04-04T01:34:47.619Z,13.57
2017-04-04T01:35:46.776Z,12.98
2017-04-04T01:36:45.873Z,12.12
2017-04-04T01:37:44.977Z,10.83
2017-04-04T01:38:44.188Z,15.10
2017-04-04T01:39:44.027Z,15.90
2017-04-04T01:40:43.190Z,11.80
2017-04-04T01:41:42.373Z,9.38
2017-04-04T01:42:41.448Z,20.50
2017-04-04T01:43:40.663Z,14.63
2017-04-04T01:44:39.820Z,12.92
2017-04-04T01:45:38.936Z,12.45
2017-04-04T01:46:38.116Z,18.23
2017-04-04T01:47:37.243Z,17.67
2017-04-04T01:48:36.263Z,17.70
2017-04-04T01:49:35.323Z,13.10
2017-04-04T01:50:34.422Z,9.55
2017-04-04T01:51:33.483Z,14.67
2017-04-04T01:52:32.632Z,14.68
2017-04-04T01:53:31.779Z,12.60
2017-04-04T01:54:30.908Z,13.57
2017-04-04T01:55:30.024Z,12.97
2017-04-04T01:56:29.160Z,11.93
2017-04-04T01:57:28.344Z,13.60
2017-04-04T01:58:27.463Z,14.23
2017-04-04T01:59:26.583Z,13.55
2017-04-04T02:00:26.396Z,14.15
2017-04-04T02:01:25.488Z,18.35
2017-04-04T02:02:24.676Z,13.05
2017-04-04T02:03:23.881Z,17.50
2017-04-04T02:04:23.104Z,13.67
2017-04-04T02:05:23.059Z,13.17
2017-04-04T02:06:22.239Z,15.38
2017-04-04T02:07:21.456Z,13.95
2017-04-04T02:08:21.311Z,16.47
2017-04-04T02:09:20.454Z,13.05
2017-04-04T02:10:19.645Z,13.75
2017-04-04T02:11:19.106Z,18.17
2017-04-04T02:12:19.159Z,15.82
2017-04-04T02:13:18.289Z,12.27
2017-04-04T02:14:18.187Z,12.70
2017-04-04T02:15:17.257Z,16.27
2017-04-04T02:16:16.372Z,16.15
2017-04-04T02:17:15.535Z,19.15
2017-04-04T02:18:14.748Z,15.02
2017-04-04T02:19:13.855Z,15.47
2017-04-04T02:20:13.015Z,12.72
2017-04-04T02:21:12.113Z,18.12
2017-04-04T02:22:11.174Z,21.50
2017-04-04T02:23:10.273Z,18.67
2017-04-04T02:24:09.439Z,18.05
2017-04-04T02:25:08.522Z,16.47
2017-04-04T02:26:07.579Z,16.35
2017-04-04T02:27:06.760Z,14.45
2017-04-04T02:28:05.868Z,15.68
2017-04-04T02:29:04.924Z,20.55
2017-04-04T02:30:04.031Z,15.57
2017-04-04T02:31:03.207Z,15.07
2017-04-04T02:32:02.275Z,21.40
2017-04-04T02:33:01.453Z,16.10
2017-04-04T02:34:00.616Z,14.00
2017-04-04T02:34:59.762Z,16.93
2017-04-04T02:35:59.580Z,20.12
2017-04-04T02:36:58.733Z,18.40
2017-04-04T02:37:58.684Z,17.02
2017-04-04T02:38:57.751Z,19.28
2017-04-04T02:39:56.873Z,16.67
2017-04-04T02:40:55.992Z,23.62
2017-04-04T02:41:55.096Z,16.95
2017-04-04T02:42:54.239Z,15.35
2017-04-04T02:43:53.311Z,15.63
2017-04-04T02:44:53.171Z,20.48
2017-04-04T02:45:52.335Z,18.02
2017-04-04T02:46:51.554Z,16.30
2017-04-04T02:47:50.735Z,16.70
2017-04-04T02:48:49.776Z,14.08
2017-04-04T02:49:48.872Z,10.98
2017-04-04T02:50:48.043Z,13.85
2017-04-04T02:51:47.223Z,18.52
2017-04-04T02:52:46.284Z,14.95
2017-04-04T02:53:45.290Z,15.88
2017-04-04T02:54:44.468Z,17.57
2017-04-04T02:55:43.606Z,14.97
2017-04-04T02:56:42.716Z,16.37
2017-04-04T02:57:41.805Z,18.08
2017-04-04T02:58:40.879Z,18.83
2017-04-04T02:59:40.111Z,19.88
2017-04-04T03:00:40.165Z,17.37
2017-04-04T03:01:39.364Z,17.68
2017-04-04T03:02:38.452Z,16.68
2017-04-04T03:03:37.999Z,18.27
2017-04-04T03:04:37.192Z,21.17
2017-04-04T03:05:36.259Z,20.03
2017-04-04T03:06:35.509Z,17.10
2017-04-04T03:07:34.671Z,19.65
2017-04-04T03:08:34.584Z,23.47
2017-04-04T03:09:34.323Z,21.82
2017-04-04T03:10:33.492Z,19.07
2017-04-04T03:11:32.667Z,20.10
2017-04-04T03:12:31.826Z,19.28
2017-04-04T03:13:31.680Z,19.23
2017-04-04T03:14:30.852Z,21.72
2017-04-04T03:15:29.994Z,21.45
2017-04-04T03:16:29.091Z,20.07
2017-04-04T03:17:28.239Z,20.32
2017-04-04T03:18:28.155Z,17.13
2017-04-04T03:19:27.327Z,22.57
2017-04-04T03:20:26.450Z,21.15
2017-04-04T03:21:25.501Z,17.38
2017-04-04T03:22:24.606Z,23.57
2017-04-04T03:23:23.699Z,19.45
2017-04-04T03:24:22.759Z,25.25
2017-04-04T03:25:21.900Z,23.70
2017-04-04T03:26:21.724Z,28.08
2017-04-04T03:27:20.891Z,21.65
2017-04-04T03:28:20.054Z,21.05
2017-04-04T03:29:19.950Z,30.20
2017-04-04T03:30:19.868Z,27.33
2017-04-04T03:31:19.267Z,23.20
2017-04-04T03:32:18.803Z,24.47
2017-04-04T03:33:17.878Z,28.58
2017-04-04T03:34:17.011Z,24.45
2017-04-04T03:35:16.049Z,27.82
2017-04-04T03:36:15.263Z,21.93
2017-04-04T03:37:14.355Z,21.48
2017-04-04T03:38:13.455Z,19.32
2017-04-04T03:39:12.599Z,27.63
2017-04-04T03:40:11.679Z,21.97
2017-04-04T03:41:10.873Z,27.82
2017-04-04T03:42:10.031Z,22.52
2017-04-04T03:43:09.842Z,15.60
2017-04-04T03:44:09.015Z,23.02
2017-04-04T03:45:08.135Z,30.18
2017-04-04T03:46:07.215Z,24.12
2017-04-04T03:47:06.435Z,19.98
2017-04-04T03:48:06.332Z,22.03
2017-04-04T03:49:06.256Z,23.38
2017-04-04T03:50:05.383Z,26.17
2017-04-04T03:51:05.227Z,22.52
2017-04-04T03:52:04.347Z,21.93
2017-04-04T03:53:03.728Z,33.92
2017-04-04T03:54:03.039Z,24.48
2017-04-04T03:55:02.125Z,24.67
2017-04-04T03:56:01.952Z,20.58
2017-04-04T03:57:01.075Z,26.08
2017-04-04T03:58:00.272Z,25.50
2017-04-04T03:58:59.411Z,28.23
2017-04-04T03:59:58.519Z,17.93
2017-04-04T04:00:57.633Z,19.38
2017-04-04T04:01:57.497Z,19.73
2017-04-04T04:02:56.571Z,23.83
2017-04-04T04:03:55.709Z,21.38
2017-04-04T04:04:54.823Z,19.58
2017-04-04T04:05:53.963Z,24.72
2017-04-04T04:06:53.059Z,19.42
2017-04-04T04:07:52.169Z,20.35
2017-04-04T04:08:51.340Z,21.62
2017-04-04T04:09:50.431Z,20.03
2017-04-04T04:10:49.551Z,20.62
2017-04-04T04:11:48.661Z,17.72
2017-04-04T04:12:47.776Z,22.35
2017-04-04T04:13:46.856Z,20.92
2017-04-04T04:14:45.964Z,18.65
2017-04-04T04:15:45.805Z,24.73
2017-04-04T04:16:44.880Z,20.43
2017-04-04T04:17:43.993Z,18.20
2017-04-04T04:18:43.435Z,23.93
2017-04-04T04:19:42.550Z,22.20
2017-04-04T04:20:41.658Z,23.22
2017-04-04T04:21:41.556Z,19.53
2017-04-04T04:22:41.449Z,21.93
2017-04-04T04:23:41.387Z,22.13
2017-04-04T04:24:40.499Z,25.23
2017-04-04T04:25:39.592Z,21.32
2017-04-04T04:26:38.636Z,29.08
2017-04-04T04:27:37.850Z,22.45
2017-04-04T04:28:36.940Z,22.85
2017-04-04T04:29:36.089Z,25.30
2017-04-04T04:30:35.127Z,26.02
2017-04-04T04:31:35.024Z,24.58
2017-04-04T04:32:34.267Z,24.07
2017-04-04T04:33:34.094Z,32.12
2017-04-04T04:34:33.950Z,21.47
2017-04-04T04:35:33.075Z,20.80
2017-04-04T04:36:32.176Z,23.23
2017-04-04T04:37:31.291Z,21.48
2017-04-04T04:38:30.403Z,20.12
2017-04-04T04:39:30.375Z,25.55
2017-04-04T04:40:29.552Z,26.12
2017-04-04T04:41:28.695Z,24.05
2017-04-04T04:42:27.856Z,25.33
2017-04-04T04:43:28.113Z,23.55
2017-04-04T04:44:27.253Z,24.63
2017-04-04T04:45:26.352Z,27.42
2017-04-04T04:46:25.450Z,21.13
2017-04-04T04:47:24.598Z,21.47
2017-04-04T04:48:23.679Z,30.80
2017-04-04T04:49:22.837Z,27.32
2017-04-04T04:50:22.627Z,19.98
2017-04-04T04:51:22.537Z,20.50
2017-04-04T04:52:21.635Z,23.38
2017-04-04T04:53:20.748Z,22.15
2017-04-04T04:54:19.864Z,24.90
2017-04-04T04:55:19.900Z,27.72
2017-04-04T04:56:18.959Z,25.17
2017-04-04T04:57:18.127Z,26.50
2017-04-04T04:58:17.319Z,24.80
2017-04-04T04:59:16.399Z,27.05
2017-04-04T05:00:15.499Z,26.50
2017-04-04T05:01:14.658Z,23.45
2017-04-04T05:02:17.712Z,21.88
2017-04-04T05:03:16.923Z,27.23
2017-04-04T05:04:16.016Z,25.12
2017-04-04T05:05:15.134Z,21.83
2017-04-04T05:06:14.205Z,30.97
2017-04-04T05:07:13.312Z,24.68
2017-04-04T05:08:13.131Z,24.85
2017-04-04T05:09:12.332Z,32.37
2017-04-04T05:10:11.451Z,26.02
2017-04-04T05:11:10.608Z,27.60
2017-04-04T05:12:09.731Z,26.27
2017-04-04T05:13:09.600Z,32.22
2017-04-04T05:14:09.199Z,27.05
2017-04-04T05:15:08.393Z,28.98
2017-04-04T05:16:08.260Z,22.87
2017-04-04T05:17:07.340Z,21.32
2017-04-04T05:18:06.451Z,23.07
2017-04-04T05:19:06.314Z,22.78
2017-04-04T05:20:05.403Z,24.60
2017-04-04T05:21:04.528Z,21.52
2017-04-04T05:22:03.556Z,26.30
2017-04-04T05:23:02.783Z,22.02
2017-04-04T05:24:01.888Z,24.68
2017-04-04T05:25:00.967Z,23.93
2017-04-04T05:26:00.120Z,25.70
2017-04-04T05:26:59.283Z,26.53
2017-04-04T05:27:59.084Z,20.65
2017-04-04T05:28:58.991Z,25.70
2017-04-04T05:29:58.905Z,21.07
2017-04-04T05:30:58.037Z,25.08
2017-04-04T05:31:57.184Z,26.08
2017-04-04T05:32:56.312Z,24.50
2017-04-04T05:33:56.156Z,26.88
2017-04-04T05:34:55.236Z,24.32
2017-04-04T05:35:54.343Z,24.77
2017-04-04T05:36:53.526Z,31.23
2017-04-04T05:37:53.340Z,26.72
2017-04-04T05:38:53.231Z,28.98
2017-04-04T05:39:52.329Z,23.77
2017-04-04T05:40:52.198Z,21.45
2017-04-04T05:41:51.330Z,24.95
2017-04-04T05:42:50.448Z,31.97
2017-04-04T05:43:49.971Z,26.42
2017-04-04T05:44:49.201Z,24.85
2017-04-04T05:45:48.328Z,21.42
2017-04-04T05:46:48.150Z,25.70
2017-04-04T05:47:47.205Z,34.50
2017-04-04T05:48:47.029Z,23.90
2017-04-04T05:49:46.079Z,30.00
2017-04-04T05:50:45.951Z,24.32
2017-04-04T05:51:45.101Z,22.27
2017-04-04T05:52:44.183Z,24.70
2017-04-04T05:53:43.359Z,25.62
2017-04-04T05:54:42.524Z,25.43
2017-04-04T05:55:41.877Z,23.88
2017-04-04T05:56:41.751Z,18.45
2017-04-04T05:57:41.387Z,23.05
2017-04-04T05:58:40.871Z,21.90
2017-04-04T05:59:40.048Z,23.18
2017-04-04T06:00:39.184Z,26.53
2017-04-04T06:01:38.308Z,25.23
2017-04-04T06:02:38.137Z,26.00
2017-04-04T06:03:37.276Z,27.67
2017-04-04T06:04:37.128Z,28.13
2017-04-04T06:05:36.288Z,25.57
2017-04-04T06:06:35.401Z,23.48
2017-04-04T06:07:34.487Z,23.23
2017-04-04T06:08:33.607Z,23.65
2017-04-04T06:09:32.800Z,24.65
2017-04-04T06:10:32.013Z,29.82
2017-04-04T06:11:31.156Z,22.83
2017-04-04T06:12:30.314Z,23.83
2017-04-04T06:13:30.122Z,28.58
2017-04-04T06:14:29.190Z,23.03
2017-04-04T06:15:29.224Z,29.33
2017-04-04T06:16:28.344Z,27.13
2017-04-04T06:17:27.416Z,22.70
2017-04-04T06:18:26.565Z,25.12
2017-04-04T06:19:25.648Z,31.78
2017-04-04T06:20:24.817Z,24.55
2017-04-04T06:21:24.019Z,27.73
2017-04-04T06:22:23.172Z,26.97
2017-04-04T06:23:22.295Z,25.97
2017-04-04T06:24:21.423Z,25.48
2017-04-04T06:25:21.267Z,26.07
2017-04-04T06:26:20.447Z,25.38
2017-04-04T06:27:19.519Z,38.08
2017-04-04T06:28:18.746Z,28.03
2017-04-04T06:29:18.591Z,32.55
2017-04-04T06:30:17.727Z,26.27
2017-04-04T06:31:17.564Z,33.10
2017-04-04T06:32:16.735Z,29.37
2017-04-04T06:33:15.852Z,23.32
2017-04-04T06:34:14.963Z,25.82
2017-04-04T06:35:14.818Z,23.27
2017-04-04T06:36:13.956Z,27.63
2017-04-04T06:37:12.964Z,31.52
2017-04-04T06:38:12.079Z,26.28
2017-04-04T06:39:11.252Z,32.58
2017-04-04T06:40:10.392Z,25.40
2017-04-04T06:41:09.625Z,28.08
2017-04-04T06:42:08.743Z,21.07
2017-04-04T06:43:07.844Z,25.62
2017-04-04T06:44:06.976Z,23.35
2017-04-04T06:45:06.840Z,25.33
2017-04-04T06:46:05.962Z,25.32
2017-04-04T06:47:05.846Z,26.25
2017-04-04T06:48:05.742Z,29.33
2017-04-04T06:49:05.684Z,27.60
2017-04-04T06:50:04.902Z,27.12
2017-04-04T06:51:03.949Z,24.90
2017-04-04T06:52:03.060Z,27.73
2017-04-04T06:53:02.656Z,33.27
2017-04-04T06:54:01.704Z,24.77
2017-04-04T06:55:00.776Z,27.97
2017-04-04T06:55:59.922Z,28.57
2017-04-04T06:56:59.788Z,23.72
2017-04-04T06:57:59.716Z,26.20
2017-04-04T06:58:59.582Z,25.62
2017-04-04T06:59:58.763Z,24.35
2017-04-04T07:00:57.848Z,30.97
2017-04-04T07:01:57.115Z,25.65
2017-04-04T07:02:56.235Z,28.68
2017-04-04T07:03:56.059Z,24.38
2017-04-04T07:04:55.263Z,22.75
2017-04-04T07:05:54.371Z,28.43
2017-04-04T07:06:53.617Z,22.53
2017-04-04T07:07:52.720Z,22.80
2017-04-04T07:08:51.792Z,19.10
2017-04-04T07:09:51.390Z,24.33
2017-04-04T07:10:51.012Z,26.68
2017-04-04T07:11:50.996Z,25.18
2017-04-04T07:12:50.156Z,28.58
2017-04-04T07:13:49.396Z,23.32
2017-04-04T07:14:48.839Z,24.37
2017-04-04T07:15:47.938Z,30.98
2017-04-04T07:16:47.768Z,24.73
2017-04-04T07:17:46.910Z,23.32
2017-04-04T07:18:46.768Z,30.42
2017-04-04T07:19:45.926Z,25.03
2017-04-04T07:20:45.076Z,21.60
2017-04-04T07:21:44.912Z,25.47
2017-04-04T07:22:44.049Z,27.67
2017-04-04T07:23:43.076Z,27.28
2017-04-04T07:24:42.236Z,23.07
2017-04-04T07:25:41.364Z,26.63
2017-04-04T07:26:40.403Z,29.45
2017-04-04T07:27:39.421Z,25.17
2017-04-04T07:28:38.552Z,24.92
2017-04-04T07:29:37.673Z,26.35
2017-04-04T07:30:36.940Z,25.63
2017-04-04T07:31:36.219Z,27.40
2017-04-04T07:32:35.451Z,25.62
2017-04-04T07:33:35.231Z,25.83
2017-04-04T07:34:35.075Z,26.12
2017-04-04T07:35:34.184Z,30.60
2017-04-04T07:36:33.319Z,25.50
2017-04-04T07:37:32.395Z,25.38
2017-04-04T07:38:32.224Z,25.93
2017-04-04T07:39:31.344Z,27.22
2017-04-04T07:40:31.179Z,26.25
2017-04-04T07:41:30.295Z,28.18
2017-04-04T07:42:29.360Z,30.82
2017-04-04T07:43:28.492Z,26.88
2017-04-04T07:44:28.512Z,24.32
2017-04-04T07:45:27.587Z,26.12
2017-04-04T07:46:26.543Z,26.73
2017-04-04T07:47:26.464Z,32.28
2017-04-04T07:48:25.545Z,33.22
2017-04-04T07:49:24.643Z,33.87
2017-04-04T07:50:23.856Z,28.78
2017-04-04T07:51:23.003Z,32.87
2017-04-04T07:52:22.141Z,32.50
2017-04-04T07:53:21.251Z,30.67
2017-04-04T07:54:20.355Z,32.38
2017-04-04T07:55:19.464Z,31.03
2017-04-04T07:56:18.632Z,23.48
2017-04-04T07:57:17.741Z,24.45
2017-04-04T07:58:17.588Z,26.23
2017-04-04T07:59:16.720Z,26.63
2017-04-04T08:00:15.772Z,29.45
2017-04-04T08:01:14.863Z,25.78
2017-04-04T08:02:14.013Z,27.50
2017-04-04T08:03:13.060Z,27.97
2017-04-04T08:04:12.194Z,31.73
2017-04-04T08:05:12.056Z,29.43
2017-04-04T08:06:11.224Z,33.08
2017-04-04T08:07:10.307Z,27.38
2017-04-04T08:08:09.520Z,29.02
2017-04-04T08:09:08.626Z,31.10
2017-04-04T08:10:08.498Z,28.25
2017-04-04T08:11:07.680Z,28.97
2017-04-04T08:12:06.828Z,26.02
2017-04-04T08:13:05.919Z,29.23
2017-04-04T08:14:05.073Z,32.40
2017-04-04T08:15:04.166Z,34.50
2017-04-04T08:16:03.363Z,34.20
2017-04-04T08:17:02.465Z,32.87
2017-04-04T08:18:01.592Z,29.68
2017-04-04T08:19:00.796Z,32.98
2017-04-04T08:19:59.996Z,31.13
2017-04-04T08:20:59.186Z,33.77
2017-04-04T08:21:58.308Z,31.30
2017-04-04T08:22:57.392Z,31.77
2017-04-04T08:23:56.511Z,28.93
2017-04-04T08:24:55.636Z,27.13
2017-04-04T08:25:55.452Z,26.68
2017-04-04T08:26:54.555Z,36.10
2017-04-04T08:27:53.695Z,30.27
2017-04-04T08:28:53.523Z,30.93
2017-04-04T08:29:52.615Z,30.35
2017-04-04T08:30:51.753Z,30.83
2017-04-04T08:31:51.651Z,30.98
2017-04-04T08:32:51.528Z,32.00
2017-04-04T08:33:50.597Z,34.50
2017-04-04T08:34:49.839Z,29.42
2017-04-04T08:35:48.888Z,28.38
2017-04-04T08:36:47.916Z,34.18
2017-04-04T08:37:47.051Z,32.23
2017-04-04T08:38:46.191Z,36.57
2017-04-04T08:39:45.296Z,31.25
2017-04-04T08:40:45.087Z,30.62
2017-04-04T08:41:44.898Z,35.83
2017-04-04T08:42:44.804Z,35.18
2017-04-04T08:43:43.861Z,32.82
2017-04-04T08:44:43.688Z,32.20
2017-04-04T08:45:42.872Z,35.20
2017-04-04T08:46:42.137Z,27.72
2017-04-04T08:47:41.272Z,31.50
2017-04-04T08:48:40.372Z,31.42
2017-04-04T08:49:40.260Z,30.82
2017-04-04T08:50:39.236Z,31.27
2017-04-04T08:51:38.308Z,31.80
2017-04-04T08:52:37.592Z,32.43
2017-04-04T08:53:36.741Z,27.45
2017-04-04T08:54:35.784Z,27.75
2017-04-04T08:55:34.872Z,34.98
2017-04-04T08:56:33.964Z,28.13
2017-04-04T08:57:33.113Z,34.83
2017-04-04T08:58:32.216Z,33.22
2017-04-04T08:59:31.340Z,28.67
2017-04-04T09:00:30.492Z,36.47
2017-04-04T09:01:29.640Z,30.88
2017-04-04T09:02:28.748Z,33.35
2017-04-04T09:03:27.888Z,29.22
2017-04-04T09:04:27.751Z,35.53
2017-04-04T09:05:26.809Z,34.93
2017-04-04T09:06:26.010Z,29.85
2017-04-04T09:07:25.152Z,36.55
2017-04-04T09:08:24.173Z,33.80
2017-04-04T09:09:23.404Z,34.93
2017-04-04T09:10:22.588Z,30.15
2017-04-04T09:11:22.412Z,33.35
2017-04-04T09:12:21.511Z,31.78
2017-04-04T09:13:21.095Z,32.65
2017-04-04T09:14:20.135Z,34.95
2017-04-04T09:15:19.272Z,31.08
2017-04-04T09:16:18.336Z,26.83
2017-04-04T09:17:18.118Z,36.35
2017-04-04T09:18:17.244Z,29.93
2017-04-04T09:19:17.128Z,31.23
2017-04-04T09:20:16.288Z,31.80
2017-04-04T09:21:15.385Z,30.20
2017-04-04T09:22:14.419Z,30.60
2017-04-04T09:23:13.456Z,27.17
2017-04-04T09:24:13.628Z,32.60
2017-04-04T09:25:12.741Z,31.68
2017-04-04T09:26:12.563Z,24.72
2017-04-04T09:27:11.736Z,31.28
2017-04-04T09:28:11.714Z,27.27
2017-04-04T09:29:11.560Z,30.08
2017-04-04T09:30:10.717Z,31.82
2017-04-04T09:31:09.797Z,27.53
2017-04-04T09:32:08.895Z,28.10
2017-04-04T09:33:07.968Z,31.53
2017-04-04T09:34:07.083Z,27.95
2017-04-04T09:35:06.248Z,30.40
2017-04-04T09:36:05.428Z,23.80
2017-04-04T09:37:05.316Z,34.22
2017-04-04T09:38:04.470Z,29.13
2017-04-04T09:39:03.876Z,31.45
2017-04-04T09:40:02.962Z,31.85
2017-04-04T09:41:02.088Z,29.47
2017-04-04T09:42:01.303Z,29.13
2017-04-04T09:43:00.424Z,30.53
2017-04-04T09:43:59.507Z,28.77
2017-04-04T09:44:58.680Z,34.10
2017-04-04T09:45:57.833Z,29.78
2017-04-04T09:46:56.903Z,31.25
2017-04-04T09:47:56.040Z,33.02
2017-04-04T09:48:55.111Z,33.50
2017-04-04T09:49:55.084Z,27.23
2017-04-04T09:50:54.140Z,31.48
2017-04-04T09:51:53.228Z,28.93
2017-04-04T09:52:52.283Z,30.88
2017-04-04T09:53:51.376Z,27.43
2017-04-04T09:54:50.588Z,24.35
2017-04-04T09:55:49.931Z,27.52
2017-04-04T09:56:49.831Z,32.95
2017-04-04T09:57:48.907Z,30.88
2017-04-04T09:58:47.924Z,28.50
2017-04-04T09:59:46.963Z,29.18
2017-04-04T10:00:46.109Z,24.03
2017-04-04T10:01:45.276Z,33.87
2017-04-04T10:02:44.327Z,29.02
2017-04-04T10:03:43.516Z,37.52
2017-04-04T10:04:42.625Z,32.27
2017-04-04T10:05:41.687Z,34.05
2017-04-04T10:06:40.771Z,29.83
2017-04-04T10:07:39.836Z,32.20
2017-04-04T10:08:39.007Z,28.33
2017-04-04T10:09:38.115Z,36.63
2017-04-04T10:10:37.287Z,28.75
2017-04-04T10:11:36.424Z,31.58
2017-04-04T10:12:35.545Z,28.85
2017-04-04T10:13:34.664Z,33.65
2017-04-04T10:14:34.575Z,27.63
2017-04-04T10:15:33.737Z,30.95
2017-04-04T10:16:33.644Z,30.98
2017-04-04T10:17:32.631Z,31.53
2017-04-04T10:18:31.799Z,27.40
2017-04-04T10:19:31.633Z,35.22
2017-04-04T10:20:30.716Z,27.10
2017-04-04T10:21:30.824Z,37.70
2017-04-04T10:22:30.027Z,45.08
2017-04-04T10:23:29.072Z,33.53
2017-04-04T10:24:28.225Z,36.48
2017-04-04T10:25:28.107Z,27.73
2017-04-04T10:26:27.974Z,29.28
2017-04-04T10:27:26.968Z,22.00
2017-04-04T10:28:26.023Z,26.83
2017-04-04T10:29:25.116Z,31.17
2017-04-04T10:30:25.037Z,32.90
2017-04-04T10:31:24.105Z,28.27
2017-04-04T10:32:23.223Z,29.33
2017-04-04T10:33:22.327Z,27.88
2017-04-04T10:34:22.200Z,28.75
2017-04-04T10:35:21.402Z,35.53
2017-04-04T10:36:20.660Z,35.47
2017-04-04T10:37:19.887Z,27.60
2017-04-04T10:38:19.131Z,25.70
2017-04-04T10:39:18.381Z,35.55
2017-04-04T10:40:18.288Z,27.27
2017-04-04T10:41:18.069Z,34.30
2017-04-04T10:42:18.039Z,37.05
2017-04-04T10:43:17.295Z,27.63
2017-04-04T10:44:16.571Z,34.95
2017-04-04T10:45:15.739Z,27.60
2017-04-04T10:46:14.832Z,25.55
2017-04-04T10:47:13.923Z,29.03
2017-04-04T10:48:13.007Z,27.98
2017-04-04T10:49:12.160Z,32.02
2017-04-04T10:50:12.081Z,27.80
2017-04-04T10:51:11.138Z,25.33
2017-04-04T10:52:10.259Z,26.20
2017-04-04T10:53:09.370Z,29.83
2017-04-04T10:54:09.239Z,26.05
2017-04-04T10:55:08.356Z,24.55
2017-04-04T10:56:07.647Z,25.85
2017-04-04T10:57:07.452Z,24.62
2017-04-04T10:58:07.259Z,27.30
2017-04-04T10:59:06.332Z,25.35
2017-04-04T11:00:05.428Z,24.27
2017-04-04T11:01:04.360Z,26.88
2017-04-04T11:02:04.156Z,20.97
2017-04-04T11:03:04.039Z,19.47
2017-04-04T11:04:03.172Z,17.63
2017-04-04T11:05:03.052Z,18.57
2017-04-04T11:06:02.124Z,17.52
2017-04-04T11:07:02.077Z,16.70
2017-04-04T11:08:01.160Z,15.97
2017-04-04T11:09:00.332Z,16.27
2017-04-04T11:09:59.391Z,15.42
2017-04-04T11:10:58.461Z,18.30
2017-04-04T11:11:57.620Z,15.13
2017-04-04T11:12:56.644Z,16.42
2017-04-04T11:13:55.695Z,16.47
2017-04-04T11:14:54.760Z,15.63
2017-04-04T11:15:53.893Z,16.15
2017-04-04T11:16:52.928Z,14.08
2017-04-04T11:17:52.093Z,14.83
2017-04-04T11:18:50.387Z,11.75
2017-04-04T11:19:49.495Z,15.90
2017-04-04T11:20:48.607Z,15.78
2017-04-04T11:21:48.447Z,14.97
2017-04-04T11:22:47.523Z,19.08
2017-04-04T11:23:46.620Z,14.50
2017-04-04T11:24:45.709Z,13.55
2017-04-04T11:25:44.740Z,12.82
2017-04-04T11:26:43.903Z,15.33
2017-04-04T11:27:43.677Z,14.23
2017-04-04T11:28:43.557Z,15.63
2017-04-04T11:29:42.664Z,17.43
2017-04-04T11:30:42.427Z,12.03
2017-04-04T11:31:41.556Z,10.08
2017-04-04T11:32:40.689Z,16.60
2017-04-04T11:33:39.968Z,10.68
2017-04-04T11:34:39.024Z,14.22
2017-04-04T11:35:38.076Z,11.52
2017-04-04T11:36:37.156Z,12.83
2017-04-04T11:37:36.179Z,12.87
2017-04-04T11:38:35.308Z,14.13
2017-04-04T11:39:34.361Z,11.57
2017-04-04T11:40:34.136Z,11.53
2017-04-04T11:41:33.208Z,12.80
2017-04-04T11:42:32.271Z,11.25
2017-04-04T11:43:31.356Z,12.97
2017-04-04T11:44:30.392Z,12.02
2017-04-04T11:45:29.584Z,11.05
2017-04-04T11:46:28.702Z,12.95
2017-04-04T11:47:27.812Z,13.05
2017-04-04T11:48:27.617Z,11.37
2017-04-04T11:49:26.697Z,14.03
2017-04-04T11:50:26.591Z,15.52
2017-04-04T11:51:26.452Z,11.88
2017-04-04T11:52:25.584Z,11.77
2017-04-04T11:53:24.645Z,11.80
2017-04-04T11:54:24.505Z,12.10
2017-04-04T11:55:23.557Z,13.63
2017-04-04T11:56:22.615Z,16.98
2017-04-04T11:57:21.671Z,11.77
2017-04-04T11:58:20.792Z,11.52
2017-04-04T11:59:19.876Z,10.58
2017-04-04T12:00:19.040Z,14.83
2017-04-04T12:01:18.196Z,15.65
2017-04-04T12:02:18.020Z,12.62
2017-04-04T12:03:17.143Z,13.57
2017-04-04T12:04:16.675Z,9.87
2017-04-04T12:05:16.447Z,14.77
2017-04-04T12:06:15.475Z,9.17
2017-04-04T12:07:14.628Z,8.73
2017-04-04T12:08:14.434Z,9.82
2017-04-04T12:09:13.552Z,12.00
2017-04-04T12:10:12.683Z,11.45
2017-04-04T12:11:11.811Z,11.80
2017-04-04T12:12:10.956Z,10.48
2017-04-04T12:13:10.039Z,10.47
2017-04-04T12:14:09.060Z,90.27
2017-04-04T12:15:08.063Z,182.83
2017-04-04T12:16:07.753Z,55.00
2017-04-04T12:17:06.151Z,15.57
2017-04-04T12:18:05.239Z,11.17
2017-04-04T12:19:04.336Z,13.28
2017-04-04T12:20:03.459Z,10.52
2017-04-04T12:21:03.191Z,10.25
2017-04-04T12:22:02.232Z,7.47
2017-04-04T12:23:02.126Z,8.42
2017-04-04T12:24:01.215Z,10.85
2017-04-04T12:25:00.380Z,13.35
2017-04-04T12:26:00.296Z,69.07
2017-04-04T12:26:59.507Z,9.80
2017-04-04T12:27:58.464Z,19.20
2017-04-04T12:28:57.581Z,10.47
2017-04-04T12:29:56.635Z,12.32
2017-04-04T12:30:55.797Z,16.12
2017-04-04T12:31:54.922Z,14.78
2017-04-04T12:32:54.298Z,13.10
2017-04-04T12:33:53.395Z,7.53
2017-04-04T12:34:53.624Z,8.28
2017-04-04T12:35:53.487Z,9.13
2017-04-04T12:36:52.564Z,10.55
2017-04-04T12:37:51.604Z,10.97
2017-04-04T12:38:50.683Z,7.75
2017-04-04T12:39:50.556Z,6.55
2017-04-04T12:40:50.091Z,7.40
2017-04-04T12:41:49.218Z,5.30
2017-04-04T12:42:47.535Z,7.40
2017-04-04T12:43:46.517Z,9.45
2017-04-04T12:44:45.662Z,6.78
2017-04-04T12:45:44.755Z,5.88